sensor_id;sensor_type;location;lat;lon;timestamp;temperature;humidity
4520;DHT22;2272;49.226;8.108;2022-12-29T00:01:51;10.70;99.90
4520;DHT22;2272;49.226;8.108;2022-12-29T00:04:19;10.60;99.90
4520;DHT22;2272;49.226;8.108;2022-12-29T00:06:45;10.70;99.90
4520;DHT22;2272;49.226;8.108;2022-12-29T00:09:12;10.70;99.90
4520;DHT22;2272;49.226;8.108;2022-12-29T00:11:40;10.60;99.90
4520;DHT22;2272;49.226;8.108;2022-12-29T00:14:08;10.50;99.90
4520;DHT22;2272;49.226;8.108;2022-12-29T00:16:54;10.50;99.90
4520;DHT22;2272;49.226;8.108;2022-12-29T00:19:21;10.60;99.90
4520;DHT22;2272;49.226;8.108;2022-12-29T00:22:20;10.70;99.90
4520;DHT22;2272;49.226;8.108;2022-12-29T00:25:07;10.80;99.90
4520;DHT22;2272;49.226;8.108;2022-12-29T00:27:52;10.90;99.90
4520;DHT22;2272;49.226;8.108;2022-12-29T00:30:36;11.00;99.90
4520;DHT22;2272;49.226;8.108;2022-12-29T00:33:29;11.10;99.90
4520;DHT22;2272;49.226;8.108;2022-12-29T00:36:17;11.10;99.90
4520;DHT22;2272;49.226;8.108;2022-12-29T00:38:47;11.20;99.90
4520;DHT22;2272;49.226;8.108;2022-12-29T00:41:32;11.20;99.90
4520;DHT22;2272;49.226;8.108;2022-12-29T00:44:17;11.20;99.90
4520;DHT22;2272;49.226;8.108;2022-12-29T00:46:43;11.20;99.90
4520;DHT22;2272;49.226;8.108;2022-12-29T00:49:12;11.20;99.90
4520;DHT22;2272;49.226;8.108;2022-12-29T00:51:59;11.20;99.90
4520;DHT22;2272;49.226;8.108;2022-12-29T00:54:27;11.10;99.90
4520;DHT22;2272;49.226;8.108;2022-12-29T00:56:54;11.10;99.90
4520;DHT22;2272;49.226;8.108;2022-12-29T00:59:21;11.10;99.90
4520;DHT22;2272;49.226;8.108;2022-12-29T01:01:49;11.10;99.90
4520;DHT22;2272;49.226;8.108;2022-12-29T01:04:18;11.10;99.90
4520;DHT22;2272;49.226;8.108;2022-12-29T01:06:45;11.00;99.90
4520;DHT22;2272;49.226;8.108;2022-12-29T01:09:12;11.00;99.90
4520;DHT22;2272;49.226;8.108;2022-12-29T01:11:56;11.00;99.90
4520;DHT22;2272;49.226;8.108;2022-12-29T01:14:23;11.00;99.90
4520;DHT22;2272;49.226;8.108;2022-12-29T01:16:50;10.90;99.90
4520;DHT22;2272;49.226;8.108;2022-12-29T01:19:19;10.90;99.90
4520;DHT22;2272;49.226;8.108;2022-12-29T01:21:46;10.90;99.90
4520;DHT22;2272;49.226;8.108;2022-12-29T01:24:13;11.00;99.90
4520;DHT22;2272;49.226;8.108;2022-12-29T01:26:40;10.90;99.90
4520;DHT22;2272;49.226;8.108;2022-12-29T01:29:07;11.00;99.90
4520;DHT22;2272;49.226;8.108;2022-12-29T01:31:34;11.00;99.90
4520;DHT22;2272;49.226;8.108;2022-12-29T01:34:00;11.00;99.90
4520;DHT22;2272;49.226;8.108;2022-12-29T01:36:28;10.90;99.90
4520;DHT22;2272;49.226;8.108;2022-12-29T01:38:55;10.80;99.90
4520;DHT22;2272;49.226;8.108;2022-12-29T01:41:22;10.70;99.90
4520;DHT22;2272;49.226;8.108;2022-12-29T01:43:51;10.60;99.90
4520;DHT22;2272;49.226;8.108;2022-12-29T01:46:22;10.50;99.90
4520;DHT22;2272;49.226;8.108;2022-12-29T01:48:52;10.50;99.90
4520;DHT22;2272;49.226;8.108;2022-12-29T01:51:21;10.50;99.90
4520;DHT22;2272;49.226;8.108;2022-12-29T01:53:50;10.50;99.90
4520;DHT22;2272;49.226;8.108;2022-12-29T01:56:18;10.50;99.90
4520;DHT22;2272;49.226;8.108;2022-12-29T01:58:48;10.50;99.90
4520;DHT22;2272;49.226;8.108;2022-12-29T02:01:18;10.60;99.90
4520;DHT22;2272;49.226;8.108;2022-12-29T02:03:46;10.50;99.90
4520;DHT22;2272;49.226;8.108;2022-12-29T02:06:15;10.50;99.90
4520;DHT22;2272;49.226;8.108;2022-12-29T02:08:43;10.50;99.90
4520;DHT22;2272;49.226;8.108;2022-12-29T02:11:14;10.60;99.90
4520;DHT22;2272;49.226;8.108;2022-12-29T02:13:42;10.60;99.90
4520;DHT22;2272;49.226;8.108;2022-12-29T02:16:18;10.60;99.90
4520;DHT22;2272;49.226;8.108;2022-12-29T02:18:51;10.60;99.90
4520;DHT22;2272;49.226;8.108;2022-12-29T02:24:55;10.60;99.90
4520;DHT22;2272;49.226;8.108;2022-12-29T02:27:40;10.70;99.90
4520;DHT22;2272;49.226;8.108;2022-12-29T02:30:29;10.70;99.90
4520;DHT22;2272;49.226;8.108;2022-12-29T02:33:00;10.60;99.90
4520;DHT22;2272;49.226;8.108;2022-12-29T02:35:36;10.60;99.90
4520;DHT22;2272;49.226;8.108;2022-12-29T02:38:12;10.60;99.90
4520;DHT22;2272;49.226;8.108;2022-12-29T02:40:46;10.60;99.90
4520;DHT22;2272;49.226;8.108;2022-12-29T02:43:22;10.60;99.90
4520;DHT22;2272;49.226;8.108;2022-12-29T02:45:54;10.70;99.90
4520;DHT22;2272;49.226;8.108;2022-12-29T02:48:25;10.70;99.90
4520;DHT22;2272;49.226;8.108;2022-12-29T02:50:58;10.80;99.90
4520;DHT22;2272;49.226;8.108;2022-12-29T02:53:27;10.80;99.90
4520;DHT22;2272;49.226;8.108;2022-12-29T02:56:13;10.80;99.90
4520;DHT22;2272;49.226;8.108;2022-12-29T02:58:40;10.80;99.90
4520;DHT22;2272;49.226;8.108;2022-12-29T03:01:17;10.90;99.90
4520;DHT22;2272;49.226;8.108;2022-12-29T03:03:56;10.90;99.90
4520;DHT22;2272;49.226;8.108;2022-12-29T03:06:33;11.00;99.90
4520;DHT22;2272;49.226;8.108;2022-12-29T03:09:09;11.10;99.90
4520;DHT22;2272;49.226;8.108;2022-12-29T03:11:44;11.00;99.90
4520;DHT22;2272;49.226;8.108;2022-12-29T03:14:33;10.70;99.90
4520;DHT22;2272;49.226;8.108;2022-12-29T03:17:26;10.70;99.90
4520;DHT22;2272;49.226;8.108;2022-12-29T03:20:01;10.70;99.90
4520;DHT22;2272;49.226;8.108;2022-12-29T03:22:32;10.70;99.90
4520;DHT22;2272;49.226;8.108;2022-12-29T03:25:03;10.80;99.90
4520;DHT22;2272;49.226;8.108;2022-12-29T03:27:34;10.80;99.90
4520;DHT22;2272;49.226;8.108;2022-12-29T03:30:05;10.70;99.90
4520;DHT22;2272;49.226;8.108;2022-12-29T03:32:38;10.60;99.90
4520;DHT22;2272;49.226;8.108;2022-12-29T03:35:08;10.60;99.90
4520;DHT22;2272;49.226;8.108;2022-12-29T03:37:39;10.60;99.90
4520;DHT22;2272;49.226;8.108;2022-12-29T03:40:08;10.60;99.90
4520;DHT22;2272;49.226;8.108;2022-12-29T03:42:36;10.60;99.90
4520;DHT22;2272;49.226;8.108;2022-12-29T03:45:05;10.60;99.90
4520;DHT22;2272;49.226;8.108;2022-12-29T03:47:32;10.60;99.90
4520;DHT22;2272;49.226;8.108;2022-12-29T03:50:00;10.60;99.90
4520;DHT22;2272;49.226;8.108;2022-12-29T03:52:27;10.60;99.90
4520;DHT22;2272;49.226;8.108;2022-12-29T03:54:54;10.80;99.90
4520;DHT22;2272;49.226;8.108;2022-12-29T03:57:20;10.80;99.90
4520;DHT22;2272;49.226;8.108;2022-12-29T03:59:47;10.90;99.90
4520;DHT22;2272;49.226;8.108;2022-12-29T04:02:14;11.00;99.90
4520;DHT22;2272;49.226;8.108;2022-12-29T04:04:40;11.20;99.90
4520;DHT22;2272;49.226;8.108;2022-12-29T04:07:08;11.20;99.90
4520;DHT22;2272;49.226;8.108;2022-12-29T04:09:35;11.30;99.90
4520;DHT22;2272;49.226;8.108;2022-12-29T04:12:02;11.20;99.90
4520;DHT22;2272;49.226;8.108;2022-12-29T04:14:28;11.20;99.90
4520;DHT22;2272;49.226;8.108;2022-12-29T04:16:55;11.10;99.90
4520;DHT22;2272;49.226;8.108;2022-12-29T04:19:22;11.00;99.90
4520;DHT22;2272;49.226;8.108;2022-12-29T04:21:48;10.90;99.90
4520;DHT22;2272;49.226;8.108;2022-12-29T04:24:17;10.90;99.90
4520;DHT22;2272;49.226;8.108;2022-12-29T04:26:43;11.10;99.90
4520;DHT22;2272;49.226;8.108;2022-12-29T04:29:10;11.20;99.90
4520;DHT22;2272;49.226;8.108;2022-12-29T04:31:37;11.30;99.90
4520;DHT22;2272;49.226;8.108;2022-12-29T04:34:03;11.30;99.90
4520;DHT22;2272;49.226;8.108;2022-12-29T04:36:30;11.30;99.90
4520;DHT22;2272;49.226;8.108;2022-12-29T04:38:57;11.30;99.90
4520;DHT22;2272;49.226;8.108;2022-12-29T04:41:25;11.30;99.90
4520;DHT22;2272;49.226;8.108;2022-12-29T04:43:52;11.30;99.90
4520;DHT22;2272;49.226;8.108;2022-12-29T04:46:18;11.10;99.90
4520;DHT22;2272;49.226;8.108;2022-12-29T04:48:45;11.00;99.90
4520;DHT22;2272;49.226;8.108;2022-12-29T04:51:12;10.90;99.90
4520;DHT22;2272;49.226;8.108;2022-12-29T04:53:39;10.80;99.90
4520;DHT22;2272;49.226;8.108;2022-12-29T04:56:06;10.80;99.90
4520;DHT22;2272;49.226;8.108;2022-12-29T04:58:34;10.80;99.90
4520;DHT22;2272;49.226;8.108;2022-12-29T05:01:01;10.70;99.90
4520;DHT22;2272;49.226;8.108;2022-12-29T05:03:27;10.70;99.90
4520;DHT22;2272;49.226;8.108;2022-12-29T05:05:54;10.60;99.90
4520;DHT22;2272;49.226;8.108;2022-12-29T05:08:21;10.60;99.90
4520;DHT22;2272;49.226;8.108;2022-12-29T05:10:50;10.40;99.90
4520;DHT22;2272;49.226;8.108;2022-12-29T05:13:16;10.30;99.90
4520;DHT22;2272;49.226;8.108;2022-12-29T05:15:47;10.20;99.90
4520;DHT22;2272;49.226;8.108;2022-12-29T05:18:15;10.20;99.90
4520;DHT22;2272;49.226;8.108;2022-12-29T05:20:42;10.20;99.90
4520;DHT22;2272;49.226;8.108;2022-12-29T05:23:09;10.20;99.90
4520;DHT22;2272;49.226;8.108;2022-12-29T05:25:35;10.20;99.90
4520;DHT22;2272;49.226;8.108;2022-12-29T05:28:02;10.20;99.90
4520;DHT22;2272;49.226;8.108;2022-12-29T05:30:29;10.30;99.90
4520;DHT22;2272;49.226;8.108;2022-12-29T05:32:57;10.50;99.90
4520;DHT22;2272;49.226;8.108;2022-12-29T05:35:23;10.60;99.90
4520;DHT22;2272;49.226;8.108;2022-12-29T05:37:50;10.70;99.90
4520;DHT22;2272;49.226;8.108;2022-12-29T05:40:17;10.90;99.90
4520;DHT22;2272;49.226;8.108;2022-12-29T05:42:43;10.90;99.90
4520;DHT22;2272;49.226;8.108;2022-12-29T05:45:10;11.10;99.90
4520;DHT22;2272;49.226;8.108;2022-12-29T05:47:37;11.20;99.90
4520;DHT22;2272;49.226;8.108;2022-12-29T05:50:05;11.40;99.90
4520;DHT22;2272;49.226;8.108;2022-12-29T05:52:32;11.50;99.90
4520;DHT22;2272;49.226;8.108;2022-12-29T05:54:59;11.50;99.90
4520;DHT22;2272;49.226;8.108;2022-12-29T05:57:25;11.50;99.90
4520;DHT22;2272;49.226;8.108;2022-12-29T05:59:52;11.60;99.90
4520;DHT22;2272;49.226;8.108;2022-12-29T06:02:19;11.50;99.90
4520;DHT22;2272;49.226;8.108;2022-12-29T06:04:45;11.50;99.90
4520;DHT22;2272;49.226;8.108;2022-12-29T06:07:13;11.50;99.90
4520;DHT22;2272;49.226;8.108;2022-12-29T06:09:40;11.40;99.90
4520;DHT22;2272;49.226;8.108;2022-12-29T06:12:07;11.30;99.90
4520;DHT22;2272;49.226;8.108;2022-12-29T06:14:33;11.30;99.90
4520;DHT22;2272;49.226;8.108;2022-12-29T06:17:00;11.30;99.90
4520;DHT22;2272;49.226;8.108;2022-12-29T06:19:27;11.20;99.90
4520;DHT22;2272;49.226;8.108;2022-12-29T06:21:53;11.30;99.90
4520;DHT22;2272;49.226;8.108;2022-12-29T06:24:21;11.30;99.90
4520;DHT22;2272;49.226;8.108;2022-12-29T06:26:48;11.30;99.90
4520;DHT22;2272;49.226;8.108;2022-12-29T06:29:15;11.30;99.90
4520;DHT22;2272;49.226;8.108;2022-12-29T06:31:42;11.20;99.90
4520;DHT22;2272;49.226;8.108;2022-12-29T06:34:10;11.20;99.90
4520;DHT22;2272;49.226;8.108;2022-12-29T06:36:37;11.20;99.90
4520;DHT22;2272;49.226;8.108;2022-12-29T06:39:04;11.10;99.90
4520;DHT22;2272;49.226;8.108;2022-12-29T06:41:32;11.20;99.90
4520;DHT22;2272;49.226;8.108;2022-12-29T06:43:58;11.10;99.90
4520;DHT22;2272;49.226;8.108;2022-12-29T06:46:25;11.00;99.90
4520;DHT22;2272;49.226;8.108;2022-12-29T06:48:51;10.80;99.90
4520;DHT22;2272;49.226;8.108;2022-12-29T06:51:18;10.70;99.90
4520;DHT22;2272;49.226;8.108;2022-12-29T06:53:45;10.60;99.90
4520;DHT22;2272;49.226;8.108;2022-12-29T06:56:11;10.50;99.90
4520;DHT22;2272;49.226;8.108;2022-12-29T06:58:39;10.40;99.90
4520;DHT22;2272;49.226;8.108;2022-12-29T07:01:06;10.40;99.90
4520;DHT22;2272;49.226;8.108;2022-12-29T07:03:33;10.30;99.90
4520;DHT22;2272;49.226;8.108;2022-12-29T07:05:59;10.30;99.90
4520;DHT22;2272;49.226;8.108;2022-12-29T07:08:26;10.30;99.90
4520;DHT22;2272;49.226;8.108;2022-12-29T07:10:53;10.30;99.90
4520;DHT22;2272;49.226;8.108;2022-12-29T07:13:19;10.30;99.90
4520;DHT22;2272;49.226;8.108;2022-12-29T07:15:47;10.30;99.90
4520;DHT22;2272;49.226;8.108;2022-12-29T07:18:14;10.40;99.90
4520;DHT22;2272;49.226;8.108;2022-12-29T07:20:41;10.40;99.90
4520;DHT22;2272;49.226;8.108;2022-12-29T07:23:08;10.50;99.90
4520;DHT22;2272;49.226;8.108;2022-12-29T07:25:34;10.60;99.90
4520;DHT22;2272;49.226;8.108;2022-12-29T07:28:01;10.70;99.90
4520;DHT22;2272;49.226;8.108;2022-12-29T07:30:28;10.70;99.90
4520;DHT22;2272;49.226;8.108;2022-12-29T07:32:56;10.80;99.90
4520;DHT22;2272;49.226;8.108;2022-12-29T07:35:23;10.90;99.90
4520;DHT22;2272;49.226;8.108;2022-12-29T07:37:50;11.00;99.90
4520;DHT22;2272;49.226;8.108;2022-12-29T07:40:16;11.00;99.90
4520;DHT22;2272;49.226;8.108;2022-12-29T07:42:43;11.00;99.90
4520;DHT22;2272;49.226;8.108;2022-12-29T07:45:10;11.10;99.90
4520;DHT22;2272;49.226;8.108;2022-12-29T07:47:38;11.30;99.90
4520;DHT22;2272;49.226;8.108;2022-12-29T07:50:06;11.30;99.90
4520;DHT22;2272;49.226;8.108;2022-12-29T07:52:33;11.40;99.90
4520;DHT22;2272;49.226;8.108;2022-12-29T07:55:00;11.40;99.90
4520;DHT22;2272;49.226;8.108;2022-12-29T07:57:26;11.40;99.90
4520;DHT22;2272;49.226;8.108;2022-12-29T07:59:53;11.50;99.90
4520;DHT22;2272;49.226;8.108;2022-12-29T08:02:19;11.50;99.90
4520;DHT22;2272;49.226;8.108;2022-12-29T08:04:46;11.60;99.90
4520;DHT22;2272;49.226;8.108;2022-12-29T08:07:14;11.70;99.90
4520;DHT22;2272;49.226;8.108;2022-12-29T08:09:41;11.80;99.90
4520;DHT22;2272;49.226;8.108;2022-12-29T08:12:09;11.90;99.90
4520;DHT22;2272;49.226;8.108;2022-12-29T08:14:36;12.00;99.90
4520;DHT22;2272;49.226;8.108;2022-12-29T08:17:03;12.10;99.90
4520;DHT22;2272;49.226;8.108;2022-12-29T08:19:29;12.20;99.90
4520;DHT22;2272;49.226;8.108;2022-12-29T08:21:56;12.30;99.90
4520;DHT22;2272;49.226;8.108;2022-12-29T08:24:24;12.40;99.90
4520;DHT22;2272;49.226;8.108;2022-12-29T08:26:51;12.40;99.90
4520;DHT22;2272;49.226;8.108;2022-12-29T08:29:17;12.60;99.90
4520;DHT22;2272;49.226;8.108;2022-12-29T08:31:44;12.60;99.90
4520;DHT22;2272;49.226;8.108;2022-12-29T08:34:11;12.70;99.90
4520;DHT22;2272;49.226;8.108;2022-12-29T08:36:38;12.80;99.90
4520;DHT22;2272;49.226;8.108;2022-12-29T08:39:05;12.90;99.90
4520;DHT22;2272;49.226;8.108;2022-12-29T08:41:33;12.90;99.90
4520;DHT22;2272;49.226;8.108;2022-12-29T08:43:59;13.00;99.90
4520;DHT22;2272;49.226;8.108;2022-12-29T08:46:26;13.00;99.90
4520;DHT22;2272;49.226;8.108;2022-12-29T08:48:53;13.10;99.90
4520;DHT22;2272;49.226;8.108;2022-12-29T08:51:20;13.00;99.90
4520;DHT22;2272;49.226;8.108;2022-12-29T08:53:47;13.10;99.90
4520;DHT22;2272;49.226;8.108;2022-12-29T08:56:13;13.00;99.90
4520;DHT22;2272;49.226;8.108;2022-12-29T08:58:41;12.90;99.90
4520;DHT22;2272;49.226;8.108;2022-12-29T09:01:09;12.90;99.90
4520;DHT22;2272;49.226;8.108;2022-12-29T09:03:36;12.90;99.90
4520;DHT22;2272;49.226;8.108;2022-12-29T09:06:03;12.70;99.90
4520;DHT22;2272;49.226;8.108;2022-12-29T09:08:30;12.70;99.90
4520;DHT22;2272;49.226;8.108;2022-12-29T09:11:05;12.60;99.90
4520;DHT22;2272;49.226;8.108;2022-12-29T09:13:32;12.50;99.90
4520;DHT22;2272;49.226;8.108;2022-12-29T09:16:01;12.40;99.90
4520;DHT22;2272;49.226;8.108;2022-12-29T09:18:28;12.30;99.90
4520;DHT22;2272;49.226;8.108;2022-12-29T09:20:56;12.20;99.90
4520;DHT22;2272;49.226;8.108;2022-12-29T09:23:24;12.10;99.90
4520;DHT22;2272;49.226;8.108;2022-12-29T09:25:50;12.10;99.90
4520;DHT22;2272;49.226;8.108;2022-12-29T09:28:17;12.10;99.90
4520;DHT22;2272;49.226;8.108;2022-12-29T09:30:44;12.00;99.90
4520;DHT22;2272;49.226;8.108;2022-12-29T09:33:12;12.00;99.90
4520;DHT22;2272;49.226;8.108;2022-12-29T09:35:41;11.90;99.90
4520;DHT22;2272;49.226;8.108;2022-12-29T09:38:08;11.80;99.90
4520;DHT22;2272;49.226;8.108;2022-12-29T09:40:35;11.80;99.90
4520;DHT22;2272;49.226;8.108;2022-12-29T09:43:19;11.90;99.90
4520;DHT22;2272;49.226;8.108;2022-12-29T09:45:57;11.90;99.90
4520;DHT22;2272;49.226;8.108;2022-12-29T09:48:30;11.90;99.90
4520;DHT22;2272;49.226;8.108;2022-12-29T09:51:01;11.80;99.90
4520;DHT22;2272;49.226;8.108;2022-12-29T09:53:31;11.70;99.90
4520;DHT22;2272;49.226;8.108;2022-12-29T09:56:03;11.60;99.90
4520;DHT22;2272;49.226;8.108;2022-12-29T09:58:36;11.70;99.90
4520;DHT22;2272;49.226;8.108;2022-12-29T10:01:07;11.80;99.90
4520;DHT22;2272;49.226;8.108;2022-12-29T10:03:44;12.00;99.90
4520;DHT22;2272;49.226;8.108;2022-12-29T10:06:14;12.10;99.90
4520;DHT22;2272;49.226;8.108;2022-12-29T10:08:48;12.20;99.90
4520;DHT22;2272;49.226;8.108;2022-12-29T10:11:27;12.20;99.90
4520;DHT22;2272;49.226;8.108;2022-12-29T10:14:13;12.20;99.90
4520;DHT22;2272;49.226;8.108;2022-12-29T10:16:48;12.20;99.90
4520;DHT22;2272;49.226;8.108;2022-12-29T10:19:32;12.20;99.90
4520;DHT22;2272;49.226;8.108;2022-12-29T10:22:09;12.30;99.90
4520;DHT22;2272;49.226;8.108;2022-12-29T10:24:39;12.50;99.90
4520;DHT22;2272;49.226;8.108;2022-12-29T10:27:10;12.50;99.90
4520;DHT22;2272;49.226;8.108;2022-12-29T10:29:41;12.40;99.90
4520;DHT22;2272;49.226;8.108;2022-12-29T10:32:24;12.20;99.90
4520;DHT22;2272;49.226;8.108;2022-12-29T10:34:55;12.10;99.90
4520;DHT22;2272;49.226;8.108;2022-12-29T10:37:30;12.10;99.90
4520;DHT22;2272;49.226;8.108;2022-12-29T10:39:59;12.10;99.90
4520;DHT22;2272;49.226;8.108;2022-12-29T10:42:29;12.10;99.90
4520;DHT22;2272;49.226;8.108;2022-12-29T10:44:59;12.20;99.90
4520;DHT22;2272;49.226;8.108;2022-12-29T10:47:29;12.20;99.90
4520;DHT22;2272;49.226;8.108;2022-12-29T10:49:57;12.20;99.90
4520;DHT22;2272;49.226;8.108;2022-12-29T10:52:26;12.30;99.90
4520;DHT22;2272;49.226;8.108;2022-12-29T10:54:55;12.50;99.90
4520;DHT22;2272;49.226;8.108;2022-12-29T10:57:26;12.70;99.90
4520;DHT22;2272;49.226;8.108;2022-12-29T10:59:54;12.80;99.90
4520;DHT22;2272;49.226;8.108;2022-12-29T11:02:47;13.00;99.90
4520;DHT22;2272;49.226;8.108;2022-12-29T11:05:24;13.30;99.90
4520;DHT22;2272;49.226;8.108;2022-12-29T11:07:59;13.20;99.90
4520;DHT22;2272;49.226;8.108;2022-12-29T11:10:35;13.10;99.90
4520;DHT22;2272;49.226;8.108;2022-12-29T11:13:04;12.80;99.90
4520;DHT22;2272;49.226;8.108;2022-12-29T11:15:39;12.70;99.90
4520;DHT22;2272;49.226;8.108;2022-12-29T11:18:18;12.50;99.90
4520;DHT22;2272;49.226;8.108;2022-12-29T11:20:48;12.50;99.90
4520;DHT22;2272;49.226;8.108;2022-12-29T11:23:28;12.60;99.90
4520;DHT22;2272;49.226;8.108;2022-12-29T11:26:14;12.60;99.90
4520;DHT22;2272;49.226;8.108;2022-12-29T11:28:43;12.40;99.90
4520;DHT22;2272;49.226;8.108;2022-12-29T11:31:10;12.00;99.90
4520;DHT22;2272;49.226;8.108;2022-12-29T11:33:38;11.50;99.90
4520;DHT22;2272;49.226;8.108;2022-12-29T11:36:10;11.20;99.90
4520;DHT22;2272;49.226;8.108;2022-12-29T11:38:40;11.10;99.90
4520;DHT22;2272;49.226;8.108;2022-12-29T11:41:12;11.40;99.90
4520;DHT22;2272;49.226;8.108;2022-12-29T11:43:42;11.60;99.90
4520;DHT22;2272;49.226;8.108;2022-12-29T11:46:16;11.80;99.90
4520;DHT22;2272;49.226;8.108;2022-12-29T11:48:43;11.90;99.90
4520;DHT22;2272;49.226;8.108;2022-12-29T11:51:11;12.00;99.90
4520;DHT22;2272;49.226;8.108;2022-12-29T11:53:43;12.10;99.90
4520;DHT22;2272;49.226;8.108;2022-12-29T11:56:13;12.20;99.90
4520;DHT22;2272;49.226;8.108;2022-12-29T11:58:41;12.00;99.90
4520;DHT22;2272;49.226;8.108;2022-12-29T12:01:15;11.80;99.90
4520;DHT22;2272;49.226;8.108;2022-12-29T12:03:48;11.70;99.90
4520;DHT22;2272;49.226;8.108;2022-12-29T12:06:20;11.70;99.90
4520;DHT22;2272;49.226;8.108;2022-12-29T12:08:54;11.70;99.90
4520;DHT22;2272;49.226;8.108;2022-12-29T12:11:25;11.80;99.90
4520;DHT22;2272;49.226;8.108;2022-12-29T12:13:59;12.00;99.90
4520;DHT22;2272;49.226;8.108;2022-12-29T12:16:30;12.20;99.90
4520;DHT22;2272;49.226;8.108;2022-12-29T12:19:02;12.30;99.90
4520;DHT22;2272;49.226;8.108;2022-12-29T12:21:36;12.30;99.90
4520;DHT22;2272;49.226;8.108;2022-12-29T12:24:23;11.90;99.90
4520;DHT22;2272;49.226;8.108;2022-12-29T12:26:59;11.60;99.90
4520;DHT22;2272;49.226;8.108;2022-12-29T12:29:33;11.10;99.90
4520;DHT22;2272;49.226;8.108;2022-12-29T12:32:10;10.80;99.90
4520;DHT22;2272;49.226;8.108;2022-12-29T12:34:41;10.30;99.90
4520;DHT22;2272;49.226;8.108;2022-12-29T12:37:31;10.00;99.90
4520;DHT22;2272;49.226;8.108;2022-12-29T12:40:18;9.70;99.90
4520;DHT22;2272;49.226;8.108;2022-12-29T12:42:52;9.70;99.90
4520;DHT22;2272;49.226;8.108;2022-12-29T12:45:34;9.60;99.90
4520;DHT22;2272;49.226;8.108;2022-12-29T12:48:19;9.60;99.90
4520;DHT22;2272;49.226;8.108;2022-12-29T12:50:55;9.60;99.90
4520;DHT22;2272;49.226;8.108;2022-12-29T12:53:36;9.70;99.90
4520;DHT22;2272;49.226;8.108;2022-12-29T12:56:28;9.70;99.90
4520;DHT22;2272;49.226;8.108;2022-12-29T12:59:05;9.70;99.90
4520;DHT22;2272;49.226;8.108;2022-12-29T13:01:41;9.80;99.90
4520;DHT22;2272;49.226;8.108;2022-12-29T13:04:30;9.80;99.90
4520;DHT22;2272;49.226;8.108;2022-12-29T13:07:07;9.90;99.90
4520;DHT22;2272;49.226;8.108;2022-12-29T13:09:46;9.80;99.90
4520;DHT22;2272;49.226;8.108;2022-12-29T13:12:23;9.80;99.90
4520;DHT22;2272;49.226;8.108;2022-12-29T13:15:02;9.80;99.90
4520;DHT22;2272;49.226;8.108;2022-12-29T13:17:34;9.70;99.90
4520;DHT22;2272;49.226;8.108;2022-12-29T13:20:10;9.70;99.90
4520;DHT22;2272;49.226;8.108;2022-12-29T13:22:44;9.70;99.90
4520;DHT22;2272;49.226;8.108;2022-12-29T13:25:30;9.80;99.90
4520;DHT22;2272;49.226;8.108;2022-12-29T13:28:02;10.00;99.90
4520;DHT22;2272;49.226;8.108;2022-12-29T13:30:34;10.10;99.90
4520;DHT22;2272;49.226;8.108;2022-12-29T13:33:10;10.20;99.90
4520;DHT22;2272;49.226;8.108;2022-12-29T13:35:55;10.30;99.90
4520;DHT22;2272;49.226;8.108;2022-12-29T13:38:26;10.30;99.90
4520;DHT22;2272;49.226;8.108;2022-12-29T13:41:00;10.30;99.90
4520;DHT22;2272;49.226;8.108;2022-12-29T13:43:32;10.30;99.90
4520;DHT22;2272;49.226;8.108;2022-12-29T13:46:05;10.30;99.90
4520;DHT22;2272;49.226;8.108;2022-12-29T13:48:39;10.30;99.90
4520;DHT22;2272;49.226;8.108;2022-12-29T13:51:08;10.20;99.90
4520;DHT22;2272;49.226;8.108;2022-12-29T13:53:41;10.10;99.90
4520;DHT22;2272;49.226;8.108;2022-12-29T13:56:15;10.00;99.90
4520;DHT22;2272;49.226;8.108;2022-12-29T13:58:50;9.90;99.90
4520;DHT22;2272;49.226;8.108;2022-12-29T14:01:22;9.80;99.90
4520;DHT22;2272;49.226;8.108;2022-12-29T14:03:51;9.70;99.90
4520;DHT22;2272;49.226;8.108;2022-12-29T14:06:23;9.70;99.90
4520;DHT22;2272;49.226;8.108;2022-12-29T14:08:53;9.60;99.90
4520;DHT22;2272;49.226;8.108;2022-12-29T14:11:23;9.50;99.90
4520;DHT22;2272;49.226;8.108;2022-12-29T14:13:51;9.30;99.90
4520;DHT22;2272;49.226;8.108;2022-12-29T14:16:29;9.10;99.90
4520;DHT22;2272;49.226;8.108;2022-12-29T14:19:06;9.00;99.90
4520;DHT22;2272;49.226;8.108;2022-12-29T14:21:35;8.80;99.90
4520;DHT22;2272;49.226;8.108;2022-12-29T14:24:41;8.70;99.90
4520;DHT22;2272;49.226;8.108;2022-12-29T14:30:48;8.60;99.90
4520;DHT22;2272;49.226;8.108;2022-12-29T14:33:16;8.60;99.90
4520;DHT22;2272;49.226;8.108;2022-12-29T14:35:44;8.50;99.90
4520;DHT22;2272;49.226;8.108;2022-12-29T14:38:17;8.50;99.90
4520;DHT22;2272;49.226;8.108;2022-12-29T14:40:45;8.40;99.90
4520;DHT22;2272;49.226;8.108;2022-12-29T14:43:16;8.50;99.90
4520;DHT22;2272;49.226;8.108;2022-12-29T14:45:54;8.50;99.90
4520;DHT22;2272;49.226;8.108;2022-12-29T14:48:37;8.50;99.90
4520;DHT22;2272;49.226;8.108;2022-12-29T14:51:18;8.50;99.90
4520;DHT22;2272;49.226;8.108;2022-12-29T14:53:47;8.40;99.90
4520;DHT22;2272;49.226;8.108;2022-12-29T14:56:16;8.40;99.90
4520;DHT22;2272;49.226;8.108;2022-12-29T14:58:47;8.40;99.90
4520;DHT22;2272;49.226;8.108;2022-12-29T15:01:20;8.40;99.90
4520;DHT22;2272;49.226;8.108;2022-12-29T15:03:50;8.40;99.90
4520;DHT22;2272;49.226;8.108;2022-12-29T15:06:18;8.30;99.90
4520;DHT22;2272;49.226;8.108;2022-12-29T15:08:50;8.20;99.90
4520;DHT22;2272;49.226;8.108;2022-12-29T15:11:20;8.10;99.90
4520;DHT22;2272;49.226;8.108;2022-12-29T15:13:47;8.00;99.90
4520;DHT22;2272;49.226;8.108;2022-12-29T15:16:24;7.90;99.90
4520;DHT22;2272;49.226;8.108;2022-12-29T15:18:51;7.90;99.90
4520;DHT22;2272;49.226;8.108;2022-12-29T15:21:21;7.80;99.90
4520;DHT22;2272;49.226;8.108;2022-12-29T15:23:49;7.70;99.90
4520;DHT22;2272;49.226;8.108;2022-12-29T15:26:16;7.70;99.90
4520;DHT22;2272;49.226;8.108;2022-12-29T15:28:48;7.70;99.90
4520;DHT22;2272;49.226;8.108;2022-12-29T15:31:17;7.60;99.90
4520;DHT22;2272;49.226;8.108;2022-12-29T15:33:49;7.50;99.90
4520;DHT22;2272;49.226;8.108;2022-12-29T15:36:20;7.50;99.90
4520;DHT22;2272;49.226;8.108;2022-12-29T15:38:47;7.40;99.90
4520;DHT22;2272;49.226;8.108;2022-12-29T15:41:26;7.30;99.90
4520;DHT22;2272;49.226;8.108;2022-12-29T15:44:07;7.20;99.90
4520;DHT22;2272;49.226;8.108;2022-12-29T15:46:35;7.20;99.90
4520;DHT22;2272;49.226;8.108;2022-12-29T15:49:06;7.10;99.90
4520;DHT22;2272;49.226;8.108;2022-12-29T15:51:36;7.10;99.90
4520;DHT22;2272;49.226;8.108;2022-12-29T15:54:04;7.10;99.90
4520;DHT22;2272;49.226;8.108;2022-12-29T15:56:32;7.20;99.90
4520;DHT22;2272;49.226;8.108;2022-12-29T15:59:00;7.20;99.90
4520;DHT22;2272;49.226;8.108;2022-12-29T16:01:28;7.20;99.90
4520;DHT22;2272;49.226;8.108;2022-12-29T16:03:58;7.20;99.90
4520;DHT22;2272;49.226;8.108;2022-12-29T16:06:29;7.40;99.90
4520;DHT22;2272;49.226;8.108;2022-12-29T16:08:59;7.50;99.90
4520;DHT22;2272;49.226;8.108;2022-12-29T16:11:30;7.60;99.90
4520;DHT22;2272;49.226;8.108;2022-12-29T16:13:58;7.70;99.90
4520;DHT22;2272;49.226;8.108;2022-12-29T16:16:28;7.70;99.90
4520;DHT22;2272;49.226;8.108;2022-12-29T16:18:56;7.80;99.90
4520;DHT22;2272;49.226;8.108;2022-12-29T16:21:25;7.90;99.90
4520;DHT22;2272;49.226;8.108;2022-12-29T16:23:56;8.00;99.90
4520;DHT22;2272;49.226;8.108;2022-12-29T16:26:25;8.20;99.90
4520;DHT22;2272;49.226;8.108;2022-12-29T16:28:55;8.20;99.90
4520;DHT22;2272;49.226;8.108;2022-12-29T16:31:24;8.20;99.90
4520;DHT22;2272;49.226;8.108;2022-12-29T16:33:52;8.20;99.90
4520;DHT22;2272;49.226;8.108;2022-12-29T16:36:24;8.30;99.90